CZVL

Edmonton / Villeneuve Airport

Edmonton, Alberta, Canada
TAF CZVL 221138Z 2212/2224 VRB03KT P6SM FEW090 BKN200 FM221800 22008KT P6SM FEW050 BKN100 FM222100 26010KT P6SM BKN050 TEMPO 2221/2224 21/2SM -SHSN RMK FCST BASED ON AUTO OBS. NXT FCST BY 221800Z
Issued Valid From Valid To
Jan-22 @ 11:38 UTC
(5 hours ago)
Jan-22 @ 12:00 UTC
(5 hours ago)
Jan-23 @ 00:00 UTC
(in 7 hours)
Jan-22 @ 12:00 to Jan-22 @ 18:00
TAF CZVL 221138Z 2212/2224 VRB03KT P6SM FEW090 BKN200
Wind Visibility Clouds
Variable at 3 knots Greater than 6 miles
  • Few at 9,000' AGL
  • Broken at 20,000' AGL
From Jan-22 @ 18:00 to Jan-22 @ 21:00
FM221800 22008KT P6SM FEW050 BKN100
Wind Visibility Clouds
220° at 8 knots Greater than 6 miles
  • Few at 5,000' AGL
  • Broken at 10,000' AGL
Temporary Jan-22 @ 21:00 to Jan-23 @ 00:00
TEMPO 2221/2224 21/2SM -SHSN RMK FCST BASED ON AUTO OBS. NXT FCST BY 221800Z
Visibility Conditions
2 1/2 miles
  • Light Snow
From Jan-22 @ 21:00 to Jan-23 @ 00:00
FM222100 26010KT P6SM BKN050
Wind Visibility Clouds
260° at 10 knots Greater than 6 miles
  • Broken at 5,000' AGL
TAF CZVL 221138Z 2212/2224 VRB03KT P6SM FEW090 BKN200 FM221800 22008KT P6SM FEW050 BKN100 FM222100 26010KT P6SM BKN050 TEMPO 2221/2224 21/2SM -SHSN RMK FCST BASED ON AUTO OBS. NXT FCST BY 221800Z
Issued Jan-22 @ 11:38 UTC
(5 hours ago)
Valid From Jan-22 @ 12:00 UTC
(5 hours ago)
Valid To Jan-23 @ 00:00 UTC
(in 7 hours)
Jan-22 @ 12:00 - Jan-22 @ 18:00
Wind Visibility
Variable at 3 knots Greater than 6 miles
Clouds
  • Few at 9,000' AGL
  • Broken at 20,000' AGL
From Jan-22 @ 18:00 - Jan-22 @ 21:00
Wind Visibility
220° at 8 knots Greater than 6 miles
Clouds
  • Few at 5,000' AGL
  • Broken at 10,000' AGL
Temporary Jan-22 @ 21:00 - Jan-23 @ 00:00
Conditions
  • Light Snow
From Jan-22 @ 21:00 - Jan-23 @ 00:00
Wind Visibility
260° at 10 knots Greater than 6 miles
Clouds
  • Broken at 5,000' AGL